AirNav   Air Wisconsin Airman Trainee
 
 471 users online  

3J6 Davis Field Airport
Folkston, Georgia, USA

GOING TO FOLKSTON?


FAA INFORMATION EFFECTIVE 25 APRIL 2019

Location

FAA Identifier: 3J6
Lat/Long: 30-47-46.9000N / 082-01-41.4000W
30-47.781667N / 082-01.690000W
30.7963611 / -82.0281667
(estimated)
Elevation: 68 ft. / 21 m (estimated)
Variation: 03W (1985)
From city: 3 miles SW of FOLKSTON, GA
Time zone: UTC -4 (UTC -5 during Standard Time)
Zip code: 31537

Airport Operations

Airport use: Open to the public
Activation date: 11/1962
Control tower: no
ARTCC: JACKSONVILLE CENTER
FSS: MACON FLIGHT SERVICE STATION
NOTAMs facility: MCN (NOTAM-D service available)
Attendance: UNATNDD
Wind indicator: lighted
Segmented circle: yes
Lights: MIRL RY 18/36 PRESET LOW INTST DUSK-2030; AFTER 2030 ACTVT - CTAF.
Beacon: white-green (lighted land airport)
Operates sunset to sunrise.

Airport Communications

CTAF: 122.9

Nearby radio navigation aids

VOR radial/distance  VOR name  Freq  Var
TAYr060/32.2TAYLOR VORTAC112.9003W
SSIr247/33.6BRUNSWICK VORTAC109.8004W
VQQr352/(35.7)CECIL VOR117.9003W
CRGr319/38.3CRAIG VORTAC114.5003W
AYSr136/39.3WAYCROSS VORTAC110.2000E

Airport Services

Parking: tiedowns
Airframe service: NONE
Powerplant service: NONE
Bottled oxygen: NONE
Bulk oxygen: NONE

Runway Information

Runway 18/36

Dimensions: 2500 x 50 ft. / 762 x 15 m
Surface: asphalt, in good condition
Weight bearing capacity: 
Single wheel: 12.5
Runway edge lights: medium intensity
RUNWAY 18  RUNWAY 36
Latitude: 30-47.988333N30-47.575833N
Longitude: 082-01.685000W082-01.694833W
Traffic pattern: leftright
Displaced threshold: no650 ft.
Markings: basic, in good conditionbasic, in good condition
Obstructions: 19 ft. trees, 580 ft. from runway, 100 ft. left of centerline, 20:1 slope to clear42 ft. trees, 201 ft. from runway, 100 ft. left and right of centerline
+50 FT TREES 90 FT LEFT & RIGHT AT THLD

Airport Ownership and Management from official FAA records

Ownership: Publicly-owned
Owner: CHARLTON COUNTY
68 KINGSLAND DR. STE B
FOLKSTON, GA 31537
Phone 912-496-2549
Manager: HAMPTON RAULERSON
68 KINSLAND DR., STE B
FOLKSTON, GA 31537
Phone (912) 886-3260

Airport Operational Statistics

Aircraft based on the field: 5
Single engine airplanes: 5
    
Aircraft operations: avg 61/week *
62% local general aviation
31% transient general aviation
6% military
* for 12-month period ending 01 November 2017

Additional Remarks

LGTD 272 FT AGL TOWER 1000 FT WEST.

Instrument Procedures

There are no published instrument procedures at 3J6.

Some nearby airports with instrument procedures:

KJAX - Jacksonville International Airport (25 nm SE)
4J1 - Brantley County Airport (25 nm N)
KFHB - Fernandina Beach Municipal Airport (31 nm E)
KAYS - Waycross-Ware County Airport (33 nm NW)
KHEG - Herlong Recreational Airport (33 nm S)
 
Loc | Ops | Rwys | IFR | FBO | Links
Com | Nav | Svcs | Stats | Notes
Area around 3J6 (Davis Field Airport)
 
Road maps at: MapQuest Bing Google
 
Aerial photo
WARNING: Photo may not be current or correct
Aerial photo of 3J6 (Davis Field Airport)
Do you have a better or more recent aerial photo of Davis Field Airport that you would like to share? If so, please send us your photo.

 
Sectional chart

 
Airport distance calculator
Flying to Davis Field Airport? Find the distance to fly.

From to 3J6

Sunrise and sunset
Times for 26-Apr-2019
 Local
(UTC-4)
 Zulu
(UTC)
Morning civil twilight06:2510:25
Sunrise06:5010:50
Sunset20:0200:02
Evening civil twilight20:2700:27

Current date and time
Zulu (UTC)  26-Apr-2019 10:56:47
Local (UTC-4)  26-Apr-2019 06:56:47
 
METAR
KJAX 
25nm SE 
260956Z 19012KT 10SM SCT150 BKN250 21/18 A2978 RMK AO2 SLP083 T02060178
KFHB 
31nm E 
261035Z AUTO 21011KT 10SM CLR 21/19 A2979 RMK AO2 T02100187
KHEG 
33nm S 
261035Z AUTO 17010G16KT 10SM CLR 20/18 A2983 RMK AO2
KAYS 
33nm NW 
261035Z AUTO 23004KT 10SM SCT080 17/15 A2980 RMK AO2 T01720146 TSNO
KVQQ 
36nm S 
261035Z AUTO 17008G14KT 10SM FEW110 20/17 A2980 RMK AO2
KCRG 
38nm SE 
260953Z 17011G18KT 10SM FEW100 21/19 A2978 RMK AO2 SLP085 T02110194
KSSI 
39nm NE 
260953Z AUTO 18008KT 10SM CLR 21/18 A2977 RMK AO2 SLP083 T02110183
KNIP 
39nm SE 
260853Z 18017KT 10SM SCT010 BKN110 OVC150 22/19 A2984 RMK AO2 WSHFT 0827 RAB04E45 SLP100 T2 SET P0001 60001 T02170189 58035
KBQK 
40nm NE 
261035Z AUTO 19008KT 10SM CLR 20/18 A2979 RMK AO2 T02020177
KNRB 
40nm SE 
260952Z 19014KT 10SM -RA FEW018 SCT110 OVC160 21/19 A2978 RMK AO2 RAB44 SLP085 T2 SET P0000 T02110194
TAF
KJAX 
25nm SE 
260914Z 2609/2706 19010KT P6SM VCSH SCT025 BKN050 OVC200 FM261300 22011KT P6SM VCSH SCT010 BKN020 OVC050 FM261600 25014G22KT P6SM SCT030 BKN050 FM262200 29011KT P6SM SCT050 BKN250 FM270200 31005KT P6SM SKC
NOTAMs
Click for the latest NOTAMs
NOTAMs are issued by the DoD/FAA and will open in a separate window not controlled by AirNav.

 

 
 

Would you like to see your business listed on this page?

 If your business provides an interesting product or service to pilots, flight crews, aircraft, or users of the Davis Field Airport, you should consider listing it here.  To start the listing process, click on the button below
 
Add a business
 

Other Pages about Davis Field Airport

Update a link
 
Copyright © AirNav, LLC. All rights reserved. Privacy Policy  Contact